DLH7HF EDDW-EDDM
Flight info
| Callsign | DLH7HF |
|---|---|
| Flight time | N/A |
| Altitude | 35000 |
| Route | NIE2M NIE Z88 SAS DCT KUMER DCT SODRO/N0436F310 T703 LULAR/N0432F300 T105 LANDU LANDU2A |
| Aircraft | A319/M-SDE3FGHIRWY/LB1 |
Departure
| Time | N/A |
|---|---|
| Airport | Bremen Airport (EDDW) |
Arrival
| Time | 2026-05-01 08:13 |
|---|---|
| Airport | Munich Airport (EDDM) |
| Time | Latitude | Longitude | Altitude | Speed | Heading |
|---|---|---|---|---|---|
| 2026-05-01 07:23 | 52.77113 | 9.20276 | 15503 ft | 344 kts | 142° |
| 2026-05-01 07:23 | 52.73152 | 9.24882 | 16841 ft | 352 kts | 142° |
| 2026-05-01 07:24 | 52.71137 | 9.27236 | 17511 ft | 357 kts | 142° |
| 2026-05-01 07:24 | 52.69100 | 9.29619 | 18171 ft | 361 kts | 142° |
| 2026-05-01 07:24 | 52.67042 | 9.32024 | 18815 ft | 365 kts | 143° |
| 2026-05-01 07:24 | 52.64954 | 9.34454 | 19388 ft | 369 kts | 143° |
| 2026-05-01 07:25 | 52.62848 | 9.36905 | 19968 ft | 373 kts | 142° |
| 2026-05-01 07:25 | 52.60764 | 9.39496 | 20545 ft | 377 kts | 140° |
| 2026-05-01 07:25 | 52.58728 | 9.42242 | 21123 ft | 380 kts | 138° |
| 2026-05-01 07:25 | 52.56734 | 9.45045 | 21692 ft | 384 kts | 137° |
| 2026-05-01 07:26 | 52.54705 | 9.47934 | 22251 ft | 388 kts | 137° |
| 2026-05-01 07:26 | 52.52653 | 9.50844 | 22820 ft | 392 kts | 138° |
| 2026-05-01 07:26 | 52.50570 | 9.53759 | 23376 ft | 396 kts | 138° |
| 2026-05-01 07:26 | 52.48452 | 9.56683 | 23920 ft | 400 kts | 139° |
| 2026-05-01 07:27 | 52.46312 | 9.59615 | 24372 ft | 403 kts | 139° |
| 2026-05-01 07:27 | 52.44143 | 9.62568 | 24813 ft | 407 kts | 139° |
| 2026-05-01 07:27 | 52.41958 | 9.65532 | 25252 ft | 410 kts | 139° |
| 2026-05-01 07:27 | 52.39752 | 9.68525 | 25685 ft | 413 kts | 139° |
| 2026-05-01 07:28 | 52.37533 | 9.71533 | 26115 ft | 416 kts | 139° |
| 2026-05-01 07:28 | 52.35299 | 9.74565 | 26531 ft | 419 kts | 139° |
| 2026-05-01 07:28 | 52.33043 | 9.77633 | 26924 ft | 423 kts | 139° |
| 2026-05-01 07:28 | 52.30773 | 9.80717 | 27330 ft | 426 kts | 139° |
| 2026-05-01 07:29 | 52.28483 | 9.83822 | 27739 ft | 430 kts | 139° |
| 2026-05-01 07:29 | 52.26176 | 9.86945 | 28146 ft | 433 kts | 139° |
| 2026-05-01 07:29 | 52.23740 | 9.89874 | 28547 ft | 437 kts | 146° |
| 2026-05-01 07:29 | 52.21191 | 9.92589 | 29006 ft | 438 kts | 146° |
| 2026-05-01 07:30 | 52.18630 | 9.95314 | 29470 ft | 440 kts | 145° |
| 2026-05-01 07:30 | 52.16061 | 9.98053 | 29876 ft | 442 kts | 145° |
| 2026-05-01 07:30 | 52.13482 | 10.00810 | 30255 ft | 445 kts | 145° |
| 2026-05-01 07:30 | 52.10886 | 10.03587 | 30603 ft | 448 kts | 145° |
| 2026-05-01 07:31 | 52.08275 | 10.06374 | 30904 ft | 451 kts | 145° |
| 2026-05-01 07:31 | 52.00320 | 10.14807 | 31744 ft | 459 kts | 146° |
| 2026-05-01 07:32 | 51.94983 | 10.20445 | 32435 ft | 461 kts | 146° |
| 2026-05-01 07:32 | 51.92297 | 10.23278 | 32862 ft | 460 kts | 146° |
| 2026-05-01 07:33 | 51.86930 | 10.28924 | 33706 ft | 459 kts | 146° |
| 2026-05-01 07:33 | 51.84257 | 10.31734 | 34174 ft | 457 kts | 146° |
| 2026-05-01 07:33 | 51.78925 | 10.37334 | 34892 ft | 458 kts | 146° |
| 2026-05-01 07:34 | 51.76254 | 10.40131 | 35242 ft | 457 kts | 146° |
| 2026-05-01 07:34 | 51.70923 | 10.45690 | 35444 ft | 452 kts | 146° |
| 2026-05-01 07:35 | 51.65654 | 10.51163 | 35437 ft | 449 kts | 146° |
| 2026-05-01 07:35 | 51.60404 | 10.56613 | 35442 ft | 449 kts | 146° |
| 2026-05-01 07:36 | 51.55152 | 10.62052 | 35440 ft | 449 kts | 146° |
| 2026-05-01 07:36 | 51.49949 | 10.67609 | 35444 ft | 448 kts | 143° |
| 2026-05-01 07:37 | 51.42382 | 10.76401 | 35441 ft | 448 kts | 142° |
| 2026-05-01 07:37 | 51.37331 | 10.82238 | 35442 ft | 448 kts | 143° |
| 2026-05-01 07:38 | 51.32250 | 10.87992 | 35441 ft | 448 kts | 143° |
| 2026-05-01 07:39 | 51.24607 | 10.96570 | 35440 ft | 448 kts | 143° |
| 2026-05-01 07:39 | 51.17006 | 11.05112 | 35459 ft | 448 kts | 143° |
| 2026-05-01 07:40 | 51.11914 | 11.10812 | 35459 ft | 447 kts | 143° |
| 2026-05-01 07:40 | 51.06819 | 11.16499 | 35456 ft | 447 kts | 143° |
| 2026-05-01 07:41 | 51.01726 | 11.22172 | 35456 ft | 447 kts | 143° |
| 2026-05-01 07:42 | 50.94082 | 11.30654 | 35436 ft | 447 kts | 143° |
| 2026-05-01 07:42 | 50.88976 | 11.36303 | 35444 ft | 447 kts | 142° |
| 2026-05-01 07:43 | 50.83873 | 11.41943 | 35435 ft | 448 kts | 142° |
| 2026-05-01 07:43 | 50.76196 | 11.50384 | 35435 ft | 448 kts | 143° |
| 2026-05-01 07:44 | 50.65967 | 11.61559 | 35435 ft | 449 kts | 142° |
| 2026-05-01 07:45 | 50.60800 | 11.67203 | 35434 ft | 449 kts | 142° |
| 2026-05-01 07:45 | 50.55696 | 11.72752 | 35443 ft | 449 kts | 142° |
| 2026-05-01 07:46 | 50.50537 | 11.78320 | 35423 ft | 450 kts | 142° |
| 2026-05-01 07:47 | 50.42328 | 11.85552 | 35423 ft | 455 kts | 154° |
| 2026-05-01 07:47 | 50.36503 | 11.89473 | 35415 ft | 456 kts | 154° |
| 2026-05-01 07:48 | 50.27770 | 11.95369 | 35427 ft | 456 kts | 154° |
| 2026-05-01 07:48 | 50.21947 | 11.99294 | 35427 ft | 456 kts | 154° |
| 2026-05-01 07:49 | 50.13194 | 12.05162 | 35429 ft | 457 kts | 153° |
| 2026-05-01 07:50 | 50.07353 | 12.09076 | 35439 ft | 457 kts | 153° |
| 2026-05-01 07:50 | 49.98584 | 12.14925 | 35433 ft | 457 kts | 153° |
| 2026-05-01 07:51 | 49.92727 | 12.18807 | 35438 ft | 458 kts | 153° |
| 2026-05-01 07:52 | 49.83974 | 12.24601 | 35432 ft | 458 kts | 153° |
| 2026-05-01 07:52 | 49.78113 | 12.28467 | 35438 ft | 458 kts | 153° |
| 2026-05-01 07:53 | 49.69728 | 12.35270 | 35436 ft | 450 kts | 137° |
| 2026-05-01 07:53 | 49.64746 | 12.41127 | 35422 ft | 450 kts | 138° |
| 2026-05-01 07:55 | 49.51285 | 12.53219 | 35109 ft | 467 kts | 173° |
| 2026-05-01 07:55 | 49.44932 | 12.51336 | 33622 ft | 473 kts | 204° |
| 2026-05-01 07:56 | 49.36015 | 12.45022 | 31779 ft | 464 kts | 205° |
| 2026-05-01 07:56 | 49.30227 | 12.40842 | 30722 ft | 456 kts | 205° |
| 2026-05-01 07:57 | 49.27327 | 12.38731 | 29522 ft | 466 kts | 205° |
| 2026-05-01 07:57 | 49.21481 | 12.34439 | 28011 ft | 463 kts | 205° |
| 2026-05-01 07:58 | 49.15730 | 12.30183 | 26783 ft | 455 kts | 205° |
| 2026-05-01 07:58 | 49.10055 | 12.25956 | 25263 ft | 454 kts | 205° |
| 2026-05-01 07:59 | 49.05365 | 12.22426 | 24201 ft | 450 kts | 205° |
| 2026-05-01 07:59 | 48.99810 | 12.18208 | 22893 ft | 442 kts | 205° |
| 2026-05-01 08:00 | 48.88909 | 12.09906 | 20461 ft | 442 kts | 205° |
| 2026-05-01 08:01 | 48.80725 | 12.03675 | 18572 ft | 436 kts | 205° |
| 2026-05-01 08:01 | 48.78022 | 12.01618 | 17897 ft | 433 kts | 205° |
| 2026-05-01 08:01 | 48.75333 | 11.99577 | 17242 ft | 431 kts | 205° |
| 2026-05-01 08:02 | 48.69984 | 11.95536 | 15958 ft | 428 kts | 205° |
| 2026-05-01 08:02 | 48.67358 | 11.93562 | 15357 ft | 426 kts | 205° |
| 2026-05-01 08:03 | 48.62077 | 11.89600 | 14155 ft | 421 kts | 205° |
| 2026-05-01 08:03 | 48.59645 | 11.87185 | 13474 ft | 420 kts | 221° |
| 2026-05-01 08:03 | 48.56139 | 11.80335 | 12252 ft | 398 kts | 234° |
| 2026-05-01 08:04 | 48.53110 | 11.73810 | 11145 ft | 364 kts | 234° |
| 2026-05-01 08:04 | 48.50334 | 11.67751 | 10017 ft | 340 kts | 234° |
| 2026-05-01 08:05 | 48.47737 | 11.62019 | 8821 ft | 323 kts | 234° |
| 2026-05-01 08:05 | 48.46494 | 11.59249 | 8241 ft | 316 kts | 234° |
| 2026-05-01 08:05 | 48.45281 | 11.56535 | 7672 ft | 309 kts | 234° |
| 2026-05-01 08:06 | 48.43201 | 11.51062 | 6580 ft | 298 kts | 253° |
| 2026-05-01 08:06 | 48.42567 | 11.45041 | 5713 ft | 285 kts | 249° |
| 2026-05-01 08:07 | 48.39926 | 11.41162 | 5033 ft | 264 kts | 190° |
| 2026-05-01 08:07 | 48.36617 | 11.42461 | 5020 ft | 251 kts | 132° |
| 2026-05-01 08:08 | 48.35681 | 11.44592 | 5016 ft | 236 kts | 116° |
| 2026-05-01 08:08 | 48.34356 | 11.48821 | 5022 ft | 214 kts | 105° |
| 2026-05-01 08:09 | 48.34414 | 11.53133 | 4638 ft | 206 kts | 84° |
| 2026-05-01 08:09 | 48.34589 | 11.55279 | 4368 ft | 207 kts | 84° |
| 2026-05-01 08:09 | 48.34759 | 11.57391 | 4094 ft | 199 kts | 84° |
| 2026-05-01 08:10 | 48.35068 | 11.61294 | 3602 ft | 177 kts | 85° |
| 2026-05-01 08:10 | 48.35341 | 11.64776 | 3138 ft | 159 kts | 85° |
| 2026-05-01 08:11 | 48.35574 | 11.67737 | 2745 ft | 129 kts | 85° |
| 2026-05-01 08:11 | 48.35771 | 11.70341 | 2369 ft | 123 kts | 83° |
| 2026-05-01 08:12 | 48.35974 | 11.72881 | 2030 ft | 121 kts | 84° |
| 2026-05-01 08:12 | 48.36068 | 11.74150 | 1857 ft | 122 kts | 85° |
| 2026-05-01 08:12 | 48.36272 | 11.76677 | 1537 ft | 122 kts | 84° |
| 2026-05-01 08:13 | 48.36359 | 11.77863 | 1486 ft | 101 kts | 82° |
| 2026-05-01 08:13 | 48.36422 | 11.78653 | 1480 ft | 51 kts | 83° |
| 2026-05-01 08:13 | 48.36434 | 11.79297 | 1477 ft | 25 kts | 107° |
| 2026-05-01 08:14 | 48.36384 | 11.79487 | 1483 ft | 18 kts | 113° |
| 2026-05-01 08:14 | 48.36338 | 11.79648 | 1483 ft | 15 kts | 113° |
| 2026-05-01 08:14 | 48.36312 | 11.79736 | 1481 ft | 4 kts | 113° |
| 2026-05-01 08:14 | 48.36298 | 11.79784 | 1485 ft | 6 kts | 114° |
| 2026-05-01 08:15 | 48.36265 | 11.79812 | 1483 ft | 6 kts | 184° |
| 2026-05-01 08:15 | 48.36230 | 11.79684 | 1485 ft | 8 kts | 262° |
| 2026-05-01 08:15 | 48.36222 | 11.79585 | 1485 ft | 11 kts | 264° |
| 2026-05-01 08:16 | 48.36194 | 11.79475 | 1481 ft | 13 kts | 211° |
| 2026-05-01 08:16 | 48.36103 | 11.79478 | 1479 ft | 14 kts | 173° |
| 2026-05-01 08:16 | 48.36005 | 11.79495 | 1478 ft | 15 kts | 173° |
| 2026-05-01 08:16 | 48.35900 | 11.79513 | 1485 ft | 16 kts | 174° |
| 2026-05-01 08:17 | 48.35788 | 11.79533 | 1475 ft | 17 kts | 173° |
| 2026-05-01 08:17 | 48.35672 | 11.79552 | 1476 ft | 17 kts | 174° |
| 2026-05-01 08:17 | 48.35550 | 11.79574 | 1485 ft | 18 kts | 173° |
| 2026-05-01 08:17 | 48.35442 | 11.79593 | 1485 ft | 15 kts | 175° |
| 2026-05-01 08:18 | 48.35336 | 11.79610 | 1482 ft | 14 kts | 173° |
| 2026-05-01 08:18 | 48.35195 | 11.79567 | 1477 ft | 11 kts | 235° |
| 2026-05-01 08:19 | 48.35161 | 11.79370 | 1483 ft | 7 kts | 265° |
| 2026-05-01 08:19 | 48.35160 | 11.79351 | 1485 ft | 0 kts | 264° |